Terminal Aerodrome Forecast
Issued by NWS Mt. Holly, NJ

Home | Current Version | Previous Version | Text Only | Print | Product List | Glossary On
Versions: 1 2 3 4 5 6 7 8 9 10 11 12 13 14 15 16 17
123
FTUS41 KPHI 220520
TAFILG
TAF
KILG 220520Z 2206/2306 21005KT P6SM VCSH BKN040
      TEMPO 2209/2212 5SM -RA
     FM221200 27004KT P6SM VCSH OVC035
     FM221400 31007KT P6SM BKN045
     FM221700 32011G21KT P6SM SCT045
     FM230200 33010KT P6SM SKC=

USA.gov is the U.S. government's official web portal to all federal, state and local government web resources and services.